createdAt,value
2023-02-20T00:01:56.079Z,95.60
2023-02-20T00:04:22.963Z,95.50
2023-02-20T00:06:49.627Z,95.50
2023-02-20T00:09:16.391Z,95.50
2023-02-20T00:11:43.064Z,95.50
2023-02-20T00:14:09.770Z,95.50
2023-02-20T00:16:36.456Z,95.50
2023-02-20T00:19:03.149Z,95.50
2023-02-20T00:21:29.778Z,95.50
2023-02-20T00:23:56.540Z,95.60
2023-02-20T00:26:23.373Z,95.50
2023-02-20T00:28:50.058Z,95.50
2023-02-20T00:31:19.601Z,95.50
2023-02-20T00:33:46.361Z,95.50
2023-02-20T00:36:16.665Z,95.50
2023-02-20T00:38:44.402Z,95.50
2023-02-20T00:41:12.321Z,95.50
2023-02-20T00:43:39.025Z,95.50
2023-02-20T00:46:05.705Z,95.50
2023-02-20T00:48:32.414Z,95.50
2023-02-20T00:51:17.786Z,95.40
2023-02-20T00:53:45.670Z,95.50
2023-02-20T00:56:12.710Z,95.50
2023-02-20T00:58:39.969Z,95.50
2023-02-20T01:01:06.727Z,95.60
2023-02-20T01:03:33.719Z,95.60
2023-02-20T01:06:00.357Z,95.50
2023-02-20T01:08:28.328Z,95.50
2023-02-20T01:10:56.074Z,96.00
2023-02-20T01:13:23.073Z,95.50
2023-02-20T01:15:49.824Z,95.50
2023-02-20T01:18:16.698Z,95.40
2023-02-20T01:20:43.277Z,95.40
2023-02-20T01:23:09.999Z,95.40
2023-02-20T01:25:36.960Z,95.40
2023-02-20T01:28:03.642Z,95.40
2023-02-20T01:30:30.373Z,95.40
2023-02-20T01:32:57.039Z,95.50
2023-02-20T01:35:23.722Z,95.50
2023-02-20T01:37:50.386Z,95.60
2023-02-20T01:40:21.909Z,95.60
2023-02-20T01:42:48.688Z,95.70
2023-02-20T01:45:24.356Z,95.70
2023-02-20T01:47:52.586Z,95.70
2023-02-20T01:50:21.250Z,95.70
2023-02-20T01:52:49.432Z,95.60
2023-02-20T01:55:36.424Z,95.60
2023-02-20T01:58:06.157Z,95.60
2023-02-20T02:00:33.054Z,95.60
2023-02-20T02:03:02.236Z,95.60
2023-02-20T02:05:30.372Z,95.70
2023-02-20T02:07:58.447Z,95.60
2023-02-20T02:10:26.596Z,95.60
2023-02-20T02:12:54.474Z,95.60
2023-02-20T02:15:22.653Z,95.60
2023-02-20T02:18:03.080Z,95.60
2023-02-20T02:20:36.428Z,95.60
2023-02-20T02:23:32.539Z,95.60
2023-02-20T02:26:17.888Z,95.70
2023-02-20T02:29:05.248Z,95.60
2023-02-20T02:31:36.088Z,95.60
2023-02-20T02:34:08.933Z,95.60
2023-02-20T02:36:44.168Z,95.60
2023-02-20T02:39:16.019Z,95.70
2023-02-20T02:41:49.555Z,95.70
2023-02-20T02:44:19.421Z,95.70
2023-02-20T02:46:59.130Z,95.60
2023-02-20T02:49:29.985Z,95.60
2023-02-20T02:51:57.783Z,95.50
2023-02-20T02:54:28.027Z,95.50
2023-02-20T02:57:14.682Z,95.50
2023-02-20T02:59:42.573Z,95.40
2023-02-20T03:02:11.664Z,95.40
2023-02-20T03:04:39.536Z,95.60
2023-02-20T03:07:11.272Z,95.40
2023-02-20T03:09:40.557Z,95.50
2023-02-20T03:12:09.240Z,95.50
2023-02-20T03:14:58.808Z,95.50
2023-02-20T03:17:32.102Z,95.50
2023-02-20T03:20:09.357Z,95.50
2023-02-20T03:22:47.877Z,95.50
2023-02-20T03:25:26.855Z,95.50
2023-02-20T03:27:59.394Z,95.50
2023-02-20T03:30:29.185Z,95.60
2023-02-20T03:33:17.876Z,95.60
2023-02-20T03:36:04.923Z,95.50
2023-02-20T03:38:53.150Z,95.60
2023-02-20T03:41:39.613Z,95.60
2023-02-20T03:44:07.120Z,95.60
2023-02-20T03:46:37.382Z,95.60
2023-02-20T03:49:12.431Z,95.60
2023-02-20T03:51:42.604Z,95.60
2023-02-20T03:54:17.650Z,95.60
2023-02-20T03:56:52.910Z,95.60
2023-02-20T03:59:22.895Z,95.60
2023-02-20T04:01:51.158Z,95.60
2023-02-20T04:04:20.472Z,95.60
2023-02-20T04:06:49.488Z,95.60
2023-02-20T04:09:19.598Z,95.60
2023-02-20T04:11:52.461Z,95.60
2023-02-20T04:14:20.479Z,95.60
2023-02-20T04:16:51.896Z,95.60
2023-02-20T04:19:19.056Z,95.50
2023-02-20T04:21:52.069Z,95.50
2023-02-20T04:24:26.397Z,95.50
2023-02-20T04:26:53.300Z,95.50
2023-02-20T04:29:20.638Z,95.50
2023-02-20T04:31:47.747Z,95.50
2023-02-20T04:34:15.698Z,95.70
2023-02-20T04:36:42.409Z,95.60
2023-02-20T04:39:09.860Z,95.60
2023-02-20T04:41:38.271Z,95.60
2023-02-20T04:44:23.675Z,95.60
2023-02-20T04:46:51.691Z,95.60
2023-02-20T04:49:19.736Z,95.60
2023-02-20T04:51:50.887Z,95.60
2023-02-20T04:54:17.825Z,95.60
2023-02-20T04:56:44.678Z,95.60
2023-02-20T04:59:11.471Z,95.60
2023-02-20T05:01:38.882Z,95.60
2023-02-20T05:04:05.590Z,95.60
2023-02-20T05:06:32.256Z,95.60
2023-02-20T05:08:59.193Z,95.60
2023-02-20T05:11:25.861Z,95.70
2023-02-20T05:13:52.632Z,95.70
2023-02-20T05:16:19.295Z,95.70
2023-02-20T05:18:46.103Z,95.80
2023-02-20T05:21:34.725Z,95.60
2023-02-20T05:24:01.398Z,95.60
2023-02-20T05:26:28.274Z,95.60
2023-02-20T05:28:55.118Z,95.70
2023-02-20T05:31:21.809Z,95.60
2023-02-20T05:33:48.550Z,95.60
2023-02-20T05:36:16.073Z,95.60
2023-02-20T05:38:47.700Z,95.60
2023-02-20T05:41:17.978Z,95.60
2023-02-20T05:43:48.442Z,95.60
2023-02-20T05:46:15.788Z,95.60
2023-02-20T05:48:43.128Z,95.60
2023-02-20T05:51:09.754Z,95.60
2023-02-20T05:53:36.403Z,95.60
2023-02-20T05:56:03.469Z,96.10
2023-02-20T05:58:30.124Z,95.70
2023-02-20T06:00:56.839Z,95.70
2023-02-20T06:03:23.489Z,95.70
2023-02-20T06:05:50.114Z,95.70
2023-02-20T06:08:16.738Z,95.70
2023-02-20T06:10:43.401Z,95.70
2023-02-20T06:13:10.124Z,95.60
2023-02-20T06:15:36.754Z,95.60
2023-02-20T06:18:03.470Z,95.60
2023-02-20T06:20:32.576Z,95.60
2023-02-20T06:22:59.241Z,95.60
2023-02-20T06:25:26.117Z,95.60
2023-02-20T06:27:52.839Z,95.60
2023-02-20T06:30:20.310Z,95.60
2023-02-20T06:32:46.969Z,95.60
2023-02-20T06:35:13.751Z,95.60
2023-02-20T06:37:40.359Z,95.60
2023-02-20T06:40:07.306Z,95.60
2023-02-20T06:42:33.896Z,95.60
2023-02-20T06:45:00.714Z,95.70
2023-02-20T06:47:27.357Z,95.70
2023-02-20T06:49:54.010Z,95.80
2023-02-20T06:52:20.805Z,95.80
2023-02-20T06:54:47.593Z,95.80
2023-02-20T06:57:15.009Z,95.80
2023-02-20T06:59:44.608Z,95.80
2023-02-20T07:02:13.025Z,95.80
2023-02-20T07:04:39.769Z,95.80
2023-02-20T07:07:06.653Z,95.80
2023-02-20T07:09:33.232Z,95.80
2023-02-20T07:12:00.296Z,95.80
2023-02-20T07:14:26.911Z,95.80
2023-02-20T07:16:53.556Z,95.80
2023-02-20T07:19:20.150Z,95.90
2023-02-20T07:21:47.181Z,95.90
2023-02-20T07:24:14.178Z,96.00
2023-02-20T07:26:41.990Z,95.90
2023-02-20T07:29:09.056Z,95.90
2023-02-20T07:31:35.768Z,95.90
2023-02-20T07:34:02.501Z,95.90
2023-02-20T07:36:35.196Z,96.00
2023-02-20T07:39:03.151Z,96.00
2023-02-20T07:41:32.197Z,96.00
2023-02-20T07:43:59.249Z,96.00
2023-02-20T07:46:26.365Z,96.00
2023-02-20T07:48:53.379Z,96.00
2023-02-20T07:51:20.348Z,96.00
2023-02-20T07:53:47.635Z,96.00
2023-02-20T07:56:15.441Z,96.00
2023-02-20T07:58:42.194Z,96.00
2023-02-20T08:01:08.886Z,96.10
2023-02-20T08:03:35.680Z,96.10
2023-02-20T08:06:02.973Z,96.10
2023-02-20T08:08:29.586Z,96.10
2023-02-20T08:11:03.699Z,96.20
2023-02-20T08:13:35.260Z,96.10
2023-02-20T08:16:02.103Z,96.10
2023-02-20T08:18:28.775Z,96.10
2023-02-20T08:20:55.632Z,96.10
2023-02-20T08:23:24.094Z,96.20
2023-02-20T08:25:51.798Z,96.20
2023-02-20T08:28:18.665Z,96.20
2023-02-20T08:30:45.386Z,96.20
2023-02-20T08:33:12.254Z,96.10
2023-02-20T08:35:38.997Z,96.10
2023-02-20T08:38:07.989Z,96.20
2023-02-20T08:40:35.115Z,96.20
2023-02-20T08:43:01.948Z,96.30
2023-02-20T08:45:28.778Z,96.30
2023-02-20T08:48:02.728Z,96.40
2023-02-20T08:50:29.412Z,96.40
2023-02-20T08:52:56.118Z,96.40
2023-02-20T08:55:22.893Z,96.40
2023-02-20T08:57:49.689Z,96.40
2023-02-20T09:00:17.676Z,96.40
2023-02-20T09:02:44.747Z,96.50
2023-02-20T09:05:11.494Z,96.40
2023-02-20T09:07:38.278Z,96.40
2023-02-20T09:10:05.458Z,96.40
2023-02-20T09:12:32.827Z,96.40
2023-02-20T09:15:02.476Z,96.40
2023-02-20T09:17:29.794Z,96.50
2023-02-20T09:19:56.577Z,96.50
2023-02-20T09:22:23.692Z,96.40
2023-02-20T09:24:50.803Z,96.50
2023-02-20T09:27:17.513Z,96.50
2023-02-20T09:29:44.324Z,96.50
2023-02-20T09:32:11.427Z,96.60
2023-02-20T09:34:38.196Z,96.70
2023-02-20T09:37:04.796Z,96.70
2023-02-20T09:39:31.901Z,96.70
2023-02-20T09:41:58.651Z,96.80
2023-02-20T09:44:27.634Z,96.70
2023-02-20T09:46:56.581Z,96.70
2023-02-20T09:49:29.513Z,96.70
2023-02-20T09:51:58.032Z,96.70
2023-02-20T09:54:28.522Z,97.10
2023-02-20T09:57:01.223Z,96.80
2023-02-20T09:59:48.674Z,96.80
2023-02-20T10:02:20.717Z,96.80
2023-02-20T10:05:00.471Z,96.80
2023-02-20T10:07:29.291Z,96.90
2023-02-20T10:09:57.259Z,96.90
2023-02-20T10:12:31.434Z,96.90
2023-02-20T10:15:13.448Z,96.90
2023-02-20T10:17:44.794Z,96.90
2023-02-20T10:20:20.116Z,97.00
2023-02-20T10:22:59.019Z,97.00
2023-02-20T10:25:34.968Z,97.00
2023-02-20T10:28:11.053Z,97.00
2023-02-20T10:30:37.695Z,97.00
2023-02-20T10:33:13.082Z,97.00
2023-02-20T10:35:42.197Z,97.00
2023-02-20T10:38:10.456Z,97.00
2023-02-20T10:40:51.633Z,97.00
2023-02-20T10:43:20.896Z,97.00
2023-02-20T10:45:57.378Z,97.50
2023-02-20T10:48:26.369Z,97.00
2023-02-20T10:51:02.029Z,97.10
2023-02-20T10:53:33.575Z,97.20
2023-02-20T10:56:09.849Z,97.20
2023-02-20T10:58:44.117Z,97.20
2023-02-20T11:01:13.116Z,97.30
2023-02-20T11:03:46.496Z,97.30
2023-02-20T11:06:16.282Z,97.30
2023-02-20T11:08:43.332Z,97.30
2023-02-20T11:11:29.619Z,97.30
2023-02-20T11:13:58.736Z,97.30
2023-02-20T11:16:41.223Z,97.20
2023-02-20T11:19:21.103Z,97.20
2023-02-20T11:21:49.057Z,97.30
2023-02-20T11:24:19.168Z,97.30
2023-02-20T11:26:48.151Z,97.20
2023-02-20T11:29:16.734Z,97.20
2023-02-20T11:31:44.918Z,97.20
2023-02-20T11:34:15.353Z,97.20
2023-02-20T11:36:45.313Z,97.20
2023-02-20T11:39:27.068Z,97.10
2023-02-20T11:42:06.081Z,97.10
2023-02-20T11:44:33.105Z,97.10
2023-02-20T11:47:18.906Z,97.20
2023-02-20T11:49:46.072Z,97.20
2023-02-20T11:52:17.848Z,97.20
2023-02-20T11:54:46.101Z,97.20
2023-02-20T11:57:19.165Z,97.10
2023-02-20T11:59:47.219Z,97.10
2023-02-20T12:02:21.954Z,97.10
2023-02-20T12:05:01.087Z,97.00
2023-02-20T12:07:33.446Z,97.10
2023-02-20T12:10:02.900Z,97.10
2023-02-20T12:12:32.095Z,97.10
2023-02-20T12:14:59.046Z,97.10
2023-02-20T12:17:34.405Z,97.10
2023-02-20T12:20:01.078Z,97.10
2023-02-20T12:22:33.875Z,97.10
2023-02-20T12:25:03.816Z,97.10
2023-02-20T12:27:42.556Z,97.10
2023-02-20T12:30:27.496Z,97.10
2023-02-20T12:33:13.183Z,97.10
2023-02-20T12:35:50.505Z,97.10
2023-02-20T12:38:28.623Z,97.10
2023-02-20T12:40:59.060Z,97.10
2023-02-20T12:43:46.114Z,97.10
2023-02-20T12:46:16.943Z,97.10
2023-02-20T12:48:54.730Z,97.10
2023-02-20T12:51:33.554Z,97.10
2023-02-20T12:54:07.691Z,97.10
2023-02-20T12:56:46.595Z,97.10
2023-02-20T12:59:31.678Z,97.10
2023-02-20T13:02:03.083Z,97.20
2023-02-20T13:04:34.925Z,97.20
2023-02-20T13:07:17.749Z,97.20
2023-02-20T13:10:03.353Z,97.20
2023-02-20T13:12:30.237Z,97.10
2023-02-20T13:15:24.210Z,97.10
2023-02-20T13:17:56.013Z,97.10
2023-02-20T13:20:33.256Z,97.10
2023-02-20T13:23:04.878Z,97.10
2023-02-20T13:25:31.565Z,97.00
2023-02-20T13:28:02.329Z,97.00
2023-02-20T13:30:29.272Z,97.00
2023-02-20T13:33:13.081Z,97.00
2023-02-20T13:35:53.070Z,96.90
2023-02-20T13:38:21.674Z,96.90
2023-02-20T13:41:00.482Z,96.80
2023-02-20T13:43:29.279Z,96.80
2023-02-20T13:46:07.238Z,96.80
2023-02-20T13:48:35.719Z,96.80
2023-02-20T13:51:14.600Z,96.80
2023-02-20T13:53:42.475Z,96.80
2023-02-20T13:56:26.633Z,96.80
2023-02-20T13:58:58.821Z,96.80
2023-02-20T14:01:25.700Z,96.70
2023-02-20T14:04:05.481Z,96.70
2023-02-20T14:06:32.514Z,96.70
2023-02-20T14:09:16.330Z,96.70
2023-02-20T14:11:43.205Z,96.60
2023-02-20T14:14:19.158Z,96.60
2023-02-20T14:16:45.919Z,96.60
2023-02-20T14:19:18.898Z,96.60
2023-02-20T14:21:45.720Z,96.60
2023-02-20T14:24:27.056Z,96.60
2023-02-20T14:26:59.023Z,96.60
2023-02-20T14:29:29.987Z,96.60
2023-02-20T14:31:57.370Z,96.50
2023-02-20T14:34:32.954Z,96.50
2023-02-20T14:36:59.504Z,96.50
2023-02-20T14:39:26.087Z,96.50
2023-02-20T14:41:54.049Z,96.50
2023-02-20T14:44:21.082Z,96.50
2023-02-20T14:46:50.830Z,96.50
2023-02-20T14:49:25.336Z,96.50
2023-02-20T14:51:52.452Z,96.50
2023-02-20T14:54:20.723Z,96.40
2023-02-20T14:56:48.217Z,96.40
2023-02-20T14:59:29.325Z,96.40
2023-02-20T15:01:57.825Z,96.40
2023-02-20T15:04:27.039Z,96.40
2023-02-20T15:06:55.416Z,96.40
2023-02-20T15:09:23.358Z,96.40
2023-02-20T15:11:51.686Z,96.40
2023-02-20T15:14:19.645Z,96.30
2023-02-20T15:16:46.748Z,96.30
2023-02-20T15:19:21.020Z,96.30
2023-02-20T15:21:55.268Z,96.30
2023-02-20T15:24:42.299Z,96.30
2023-02-20T15:27:10.048Z,96.30
2023-02-20T15:29:36.948Z,96.20
2023-02-20T15:32:15.510Z,96.20
2023-02-20T15:34:43.399Z,96.20
2023-02-20T15:37:27.155Z,96.20
2023-02-20T15:40:21.148Z,96.20
2023-02-20T15:42:48.443Z,96.20
2023-02-20T15:45:15.359Z,96.20
2023-02-20T15:47:42.121Z,96.20
2023-02-20T15:50:09.042Z,96.20
2023-02-20T15:52:35.747Z,96.20
2023-02-20T15:55:02.572Z,96.20
2023-02-20T15:57:29.585Z,96.20
2023-02-20T15:59:56.220Z,96.10
2023-02-20T16:02:24.347Z,96.10
2023-02-20T16:04:52.227Z,96.10
2023-02-20T16:07:19.817Z,96.10
2023-02-20T16:09:46.596Z,96.10
2023-02-20T16:12:18.363Z,96.10
2023-02-20T16:14:45.191Z,96.10
2023-02-20T16:17:18.874Z,96.10
2023-02-20T16:19:45.849Z,96.10
2023-02-20T16:22:12.700Z,96.10
2023-02-20T16:24:40.269Z,96.10
2023-02-20T16:27:21.702Z,96.10
2023-02-20T16:29:50.409Z,96.00
2023-02-20T16:32:21.733Z,96.00
2023-02-20T16:34:49.225Z,96.00
2023-02-20T16:37:16.400Z,96.00
2023-02-20T16:39:43.976Z,96.00
2023-02-20T16:42:16.802Z,96.00
2023-02-20T16:44:44.515Z,96.00
2023-02-20T16:47:12.023Z,96.00
2023-02-20T16:49:39.925Z,96.00
2023-02-20T16:52:27.084Z,95.90
2023-02-20T16:54:54.778Z,96.00
2023-02-20T16:57:23.663Z,95.90
2023-02-20T16:59:51.226Z,95.90
2023-02-20T17:02:19.545Z,95.90
2023-02-20T17:04:46.559Z,95.90
2023-02-20T17:07:13.313Z,95.90
2023-02-20T17:09:46.299Z,95.90
2023-02-20T17:12:15.805Z,95.90
2023-02-20T17:14:43.259Z,95.90
2023-02-20T17:17:10.307Z,95.90
2023-02-20T17:19:37.797Z,95.90
2023-02-20T17:22:04.632Z,95.90
2023-02-20T17:24:32.864Z,95.90
2023-02-20T17:27:00.373Z,95.90
2023-02-20T17:29:27.602Z,95.90
2023-02-20T17:31:54.775Z,95.90
2023-02-20T17:34:21.492Z,95.90
2023-02-20T17:36:49.268Z,95.90
2023-02-20T17:39:20.705Z,95.90
2023-02-20T17:41:51.507Z,95.90
2023-02-20T17:44:19.859Z,95.90
2023-02-20T17:46:48.866Z,95.80
2023-02-20T17:49:19.370Z,95.80
2023-02-20T17:51:46.746Z,95.80
2023-02-20T17:54:13.371Z,95.80
2023-02-20T17:56:44.030Z,95.80
2023-02-20T17:59:11.126Z,95.80
2023-02-20T18:01:39.142Z,95.80
2023-02-20T18:04:06.203Z,95.80
2023-02-20T18:06:33.153Z,95.80
2023-02-20T18:08:59.930Z,95.80
2023-02-20T18:11:27.835Z,95.70
2023-02-20T18:13:55.250Z,95.80
2023-02-20T18:16:22.228Z,95.80
2023-02-20T18:18:49.368Z,95.80
2023-02-20T18:21:26.325Z,95.80
2023-02-20T18:23:53.406Z,95.70
2023-02-20T18:26:20.366Z,95.80
2023-02-20T18:28:47.087Z,95.70
2023-02-20T18:31:14.140Z,95.80
2023-02-20T18:33:40.998Z,95.80
2023-02-20T18:36:08.791Z,95.80
2023-02-20T18:38:36.282Z,95.70
2023-02-20T18:41:03.329Z,95.70
2023-02-20T18:43:33.396Z,95.70
2023-02-20T18:46:00.327Z,95.70
2023-02-20T18:48:27.166Z,95.70
2023-02-20T18:50:53.788Z,95.70
2023-02-20T18:53:20.859Z,95.70
2023-02-20T18:55:48.506Z,95.70
2023-02-20T18:58:15.277Z,95.70
2023-02-20T19:00:42.017Z,95.70
2023-02-20T19:03:08.728Z,95.70
2023-02-20T19:05:35.542Z,95.70
2023-02-20T19:08:04.176Z,95.70
2023-02-20T19:10:31.120Z,95.70
2023-02-20T19:12:58.284Z,95.70
2023-02-20T19:15:27.245Z,95.80
2023-02-20T19:17:54.620Z,95.70
2023-02-20T19:20:28.784Z,95.70
2023-02-20T19:22:56.438Z,95.70
2023-02-20T19:25:23.470Z,95.70
2023-02-20T19:27:52.690Z,95.70
2023-02-20T19:30:20.923Z,95.80
2023-02-20T19:32:48.270Z,95.70
2023-02-20T19:35:18.362Z,95.80
2023-02-20T19:37:45.030Z,95.70
2023-02-20T19:40:11.801Z,95.70
2023-02-20T19:42:39.529Z,95.70
2023-02-20T19:45:06.402Z,95.70
2023-02-20T19:47:33.051Z,95.70
2023-02-20T19:50:01.777Z,95.80
2023-02-20T19:52:28.639Z,95.80
2023-02-20T19:54:55.366Z,95.80
2023-02-20T19:57:22.165Z,95.80
2023-02-20T19:59:48.961Z,95.80
2023-02-20T20:02:15.683Z,95.80
2023-02-20T20:04:43.624Z,95.80
2023-02-20T20:07:10.501Z,95.80
2023-02-20T20:09:38.157Z,95.80
2023-02-20T20:12:26.099Z,95.80
2023-02-20T20:14:52.972Z,95.80
2023-02-20T20:17:19.661Z,95.80
2023-02-20T20:19:58.428Z,95.80
2023-02-20T20:22:26.177Z,95.80
2023-02-20T20:24:52.837Z,95.80
2023-02-20T20:27:20.723Z,95.80
2023-02-20T20:29:48.616Z,95.80
2023-02-20T20:32:19.467Z,95.80
2023-02-20T20:34:52.504Z,95.80
2023-02-20T20:37:20.455Z,95.80
2023-02-20T20:39:47.274Z,95.80
2023-02-20T20:42:15.748Z,95.80
2023-02-20T20:44:42.492Z,96.20
2023-02-20T20:47:09.427Z,95.80
2023-02-20T20:49:37.461Z,95.80
2023-02-20T20:52:04.213Z,95.80
2023-02-20T20:54:30.893Z,95.80
2023-02-20T20:56:57.657Z,95.90
2023-02-20T20:59:24.370Z,95.90
2023-02-20T21:01:51.147Z,95.80
2023-02-20T21:04:17.963Z,95.80
2023-02-20T21:06:44.912Z,95.80
2023-02-20T21:09:11.636Z,95.90
2023-02-20T21:11:38.730Z,95.90
2023-02-20T21:14:05.458Z,95.80
2023-02-20T21:16:32.635Z,95.80
2023-02-20T21:18:59.220Z,95.90
2023-02-20T21:21:26.800Z,95.90
2023-02-20T21:23:53.454Z,95.90
2023-02-20T21:26:20.417Z,95.90
2023-02-20T21:28:47.103Z,95.90
2023-02-20T21:31:15.118Z,95.80
2023-02-20T21:33:42.306Z,95.80
2023-02-20T21:36:09.099Z,95.90
2023-02-20T21:38:35.906Z,95.80
2023-02-20T21:41:03.422Z,95.90
2023-02-20T21:43:48.997Z,95.90
2023-02-20T21:46:17.900Z,95.90
2023-02-20T21:48:44.751Z,95.90
2023-02-20T21:51:11.867Z,95.90
2023-02-20T21:53:38.654Z,95.90
2023-02-20T21:56:05.596Z,95.80
2023-02-20T21:58:51.076Z,95.90
2023-02-20T22:01:17.791Z,95.90
2023-02-20T22:03:44.328Z,95.90
2023-02-20T22:06:10.923Z,95.90
2023-02-20T22:08:56.395Z,95.90
2023-02-20T22:11:41.824Z,95.90
2023-02-20T22:14:27.345Z,95.90
2023-02-20T22:17:12.939Z,95.90
2023-02-20T22:20:00.908Z,95.90
2023-02-20T22:22:46.541Z,95.90
2023-02-20T22:25:31.944Z,95.80
2023-02-20T22:28:17.549Z,95.90
2023-02-20T22:31:03.042Z,95.90
2023-02-20T22:33:48.633Z,95.90
2023-02-20T22:36:34.096Z,95.90
2023-02-20T22:39:21.568Z,95.80
2023-02-20T22:42:07.292Z,95.80
2023-02-20T22:44:52.833Z,95.80
2023-02-20T22:47:38.302Z,95.80
2023-02-20T22:50:23.539Z,95.80
2023-02-20T22:53:09.129Z,95.80
2023-02-20T22:55:54.791Z,95.80
2023-02-20T22:58:40.419Z,95.80
2023-02-20T23:01:25.848Z,95.80
2023-02-20T23:04:11.540Z,95.80
2023-02-20T23:06:56.908Z,95.80
2023-02-20T23:09:42.325Z,95.80
2023-02-20T23:12:27.914Z,95.80
2023-02-20T23:15:13.325Z,95.80
2023-02-20T23:18:00.344Z,95.80
2023-02-20T23:20:45.661Z,95.80
2023-02-20T23:23:31.678Z,95.80
2023-02-20T23:26:17.151Z,95.80
2023-02-20T23:29:02.668Z,95.80
2023-02-20T23:31:58.979Z,95.80
2023-02-20T23:34:44.589Z,95.80
2023-02-20T23:37:30.623Z,95.80
2023-02-20T23:40:21.185Z,95.80
2023-02-20T23:43:10.240Z,95.70
2023-02-20T23:45:56.043Z,95.80
2023-02-20T23:48:41.542Z,95.70
2023-02-20T23:51:30.491Z,95.70
2023-02-20T23:54:15.888Z,95.70
2023-02-20T23:57:01.519Z,95.70
2023-02-20T23:59:47.045Z,95.70
